createdAt,value
2018-12-19T00:03:59.378Z,209.20
2018-12-19T00:09:09.296Z,211.87
2018-12-19T00:14:18.531Z,202.90
2018-12-19T00:19:26.517Z,201.63
2018-12-19T00:24:33.911Z,229.03
2018-12-19T00:29:41.710Z,210.13
2018-12-19T00:34:50.838Z,231.87
2018-12-19T00:39:56.629Z,220.87
2018-12-19T00:45:04.766Z,198.37
2018-12-19T00:50:12.402Z,204.60
2018-12-19T00:55:21.709Z,215.57
2018-12-19T01:00:30.710Z,250.23
2018-12-19T01:05:37.808Z,229.87
2018-12-19T01:10:44.383Z,220.80
2018-12-19T01:15:50.620Z,212.63
2018-12-19T01:20:58.055Z,214.47
2018-12-19T01:26:06.354Z,212.30
2018-12-19T01:31:13.318Z,237.55
2018-12-19T01:36:19.250Z,207.03
2018-12-19T01:41:25.065Z,210.65
2018-12-19T01:46:32.555Z,224.97
2018-12-19T01:51:38.690Z,226.33
2018-12-19T01:56:44.467Z,221.27
2018-12-19T02:01:50.496Z,227.63
2018-12-19T02:06:56.450Z,240.07
2018-12-19T02:12:02.415Z,231.30
2018-12-19T02:17:09.715Z,234.63
2018-12-19T02:22:15.990Z,259.90
2018-12-19T02:27:22.013Z,226.67
2018-12-19T02:32:27.988Z,203.37
2018-12-19T02:37:33.917Z,240.83
2018-12-19T02:42:39.735Z,218.77
2018-12-19T02:47:46.858Z,215.37
2018-12-19T02:52:52.717Z,215.95
2018-12-19T02:57:58.414Z,242.03
2018-12-19T03:03:04.254Z,236.20
2018-12-19T03:08:10.858Z,216.33
2018-12-19T03:13:16.898Z,218.40
2018-12-19T03:18:23.076Z,231.10
2018-12-19T03:23:30.312Z,201.40
2018-12-19T03:28:37.030Z,252.43
2018-12-19T03:33:42.969Z,277.67
2018-12-19T03:38:49.321Z,238.70
2018-12-19T03:43:56.141Z,245.40
2018-12-19T03:49:01.850Z,222.00
2018-12-19T03:54:10.354Z,220.57
2018-12-19T03:59:16.276Z,245.20
2018-12-19T04:04:22.296Z,237.73
2018-12-19T04:09:28.114Z,227.77
2018-12-19T04:14:33.898Z,200.70
2018-12-19T04:19:40.956Z,211.17
2018-12-19T04:24:50.032Z,242.23
2018-12-19T04:29:55.994Z,374.95
2018-12-19T04:35:02.926Z,266.73
2018-12-19T04:40:08.828Z,293.47
2018-12-19T04:45:14.652Z,413.67
2018-12-19T04:50:21.550Z,367.27
2018-12-19T04:55:28.696Z,410.97
2018-12-19T05:00:36.442Z,377.90
2018-12-19T05:05:42.483Z,397.93
2018-12-19T05:10:49.971Z,205.93
2018-12-19T05:15:56.778Z,240.65
2018-12-19T05:21:02.592Z,220.77
2018-12-19T05:26:08.429Z,226.67
2018-12-19T05:31:14.430Z,235.08
2018-12-19T05:36:23.169Z,236.27
2018-12-19T05:41:28.997Z,202.83
2018-12-19T05:46:36.067Z,228.47
2018-12-19T05:51:43.478Z,249.60
2018-12-19T05:56:50.509Z,227.37
2018-12-19T06:02:00.672Z,259.57
2018-12-19T06:07:07.571Z,222.03
2018-12-19T06:12:22.641Z,198.20
2018-12-19T06:17:28.538Z,177.93
2018-12-19T06:22:34.431Z,210.70
2018-12-19T06:27:49.932Z,208.57
2018-12-19T06:32:55.863Z,188.03
2018-12-19T06:38:06.471Z,203.33
2018-12-19T06:43:16.969Z,193.62
2018-12-19T06:48:22.817Z,214.10
2018-12-19T06:53:30.060Z,194.20
2018-12-19T06:58:37.056Z,214.63
2018-12-19T07:03:43.016Z,183.80
2018-12-19T07:09:12.658Z,174.50
2018-12-19T07:14:29.273Z,189.35
2018-12-19T07:19:36.872Z,169.43
2018-12-19T07:24:57.133Z,168.30
2018-12-19T07:30:02.999Z,156.83
2018-12-19T07:35:09.216Z,162.00
2018-12-19T07:40:15.198Z,157.97
2018-12-19T07:45:20.900Z,172.93
2018-12-19T07:50:27.733Z,185.87
2018-12-19T07:55:36.373Z,186.80
2018-12-19T08:00:42.912Z,205.27
2018-12-19T08:05:50.526Z,163.03
2018-12-19T08:10:58.364Z,153.97
2018-12-19T08:16:05.015Z,160.40
2018-12-19T08:21:11.169Z,148.47
2018-12-19T08:26:33.913Z,156.17
2018-12-19T08:31:39.744Z,153.77
2018-12-19T08:36:45.883Z,159.90
2018-12-19T08:41:54.004Z,149.03
2018-12-19T08:46:59.873Z,145.77
2018-12-19T08:52:08.843Z,154.13
2018-12-19T08:57:14.768Z,173.00
2018-12-19T09:02:21.006Z,190.07
2018-12-19T09:07:40.080Z,178.67
2018-12-19T09:12:45.901Z,178.23
2018-12-19T09:17:53.109Z,144.13
2018-12-19T09:22:59.065Z,149.30
2018-12-19T09:28:14.204Z,191.10
2018-12-19T09:33:27.167Z,142.07
2018-12-19T09:38:29.204Z,116.90
2018-12-19T09:43:36.049Z,315.37
2018-12-19T09:48:42.214Z,154.60
2018-12-19T09:53:48.202Z,109.17
2018-12-19T09:58:54.877Z,141.10
2018-12-19T10:04:21.673Z,144.67
2018-12-19T10:09:27.501Z,108.87
2018-12-19T10:14:34.228Z,90.17
2018-12-19T10:19:40.127Z,99.27
2018-12-19T10:24:51.671Z,341.90
2018-12-19T10:29:58.418Z,120.23
2018-12-19T10:35:05.490Z,101.23
2018-12-19T10:40:13.948Z,156.10
2018-12-19T10:45:19.780Z,144.90
2018-12-19T10:50:32.727Z,105.70
2018-12-19T10:55:39.354Z,117.20
2018-12-19T11:06:15.495Z,76.55
2018-12-19T11:11:40.692Z,97.47
2018-12-19T11:16:50.103Z,90.83
2018-12-19T11:21:55.972Z,120.67
2018-12-19T11:27:01.751Z,255.93
2018-12-19T11:32:08.441Z,158.40
2018-12-19T11:37:15.475Z,117.97
2018-12-19T11:42:22.681Z,108.40
2018-12-19T11:47:31.436Z,125.67
2018-12-19T11:52:38.777Z,106.60
2018-12-19T11:57:45.034Z,76.43
2018-12-19T12:02:52.156Z,71.03
2018-12-19T12:07:58.894Z,64.50
2018-12-19T12:13:07.111Z,80.60
2018-12-19T12:18:14.148Z,98.07
2018-12-19T12:23:20.959Z,94.63
2018-12-19T12:28:34.803Z,69.13
2018-12-19T12:33:40.554Z,82.15
2018-12-19T12:38:46.350Z,69.40
2018-12-19T12:43:53.261Z,75.13
2018-12-19T12:49:00.157Z,99.87
2018-12-19T12:54:28.962Z,77.30
2018-12-19T12:59:36.651Z,78.20
2018-12-19T13:04:44.180Z,75.83
2018-12-19T13:09:50.005Z,102.27
2018-12-19T13:14:56.039Z,113.03
2018-12-19T13:20:01.824Z,80.30
2018-12-19T13:25:09.627Z,97.20
2018-12-19T13:30:17.093Z,74.40
2018-12-19T13:35:24.024Z,77.47
2018-12-19T13:40:29.841Z,77.23
2018-12-19T13:45:37.236Z,77.40
2018-12-19T13:50:45.418Z,94.03
2018-12-19T13:55:51.658Z,89.17
2018-12-19T14:00:58.549Z,90.00
2018-12-19T14:06:05.413Z,84.17
2018-12-19T14:11:14.572Z,111.85
2018-12-19T14:16:22.449Z,118.42
2018-12-19T14:21:32.100Z,122.33
2018-12-19T14:26:37.898Z,83.03
2018-12-19T14:31:48.134Z,91.90
2018-12-19T14:36:54.068Z,92.77
2018-12-19T14:42:00.987Z,100.23
2018-12-19T14:47:08.549Z,186.87
2018-12-19T14:52:19.732Z,114.10
2018-12-19T14:57:27.910Z,100.13
2018-12-19T15:02:33.927Z,97.80
2018-12-19T15:07:39.680Z,109.30
2018-12-19T15:12:45.400Z,98.53
2018-12-19T15:17:51.212Z,110.00
2018-12-19T15:22:57.330Z,121.53
2018-12-19T15:28:03.009Z,64.67
2018-12-19T15:33:09.258Z,106.00
2018-12-19T15:38:17.353Z,80.80
2018-12-19T15:43:25.626Z,91.37
2018-12-19T15:48:40.087Z,92.40
2018-12-19T15:53:48.846Z,87.37
2018-12-19T15:58:56.748Z,83.53
2018-12-19T16:04:02.550Z,76.70
2018-12-19T16:09:15.212Z,76.07
2018-12-19T16:14:21.061Z,76.75
2018-12-19T16:19:27.515Z,94.60
2018-12-19T16:24:34.551Z,88.47
2018-12-19T16:29:41.242Z,81.57
2018-12-19T16:34:53.759Z,70.60
2018-12-19T16:40:04.959Z,84.33
2018-12-19T16:45:14.401Z,79.20
2018-12-19T16:50:24.117Z,79.53
2018-12-19T16:55:30.947Z,83.97
2018-12-19T17:00:38.787Z,70.20
2018-12-19T17:06:03.005Z,92.33
2018-12-19T17:11:15.599Z,75.43
2018-12-19T17:16:29.779Z,72.55
2018-12-19T17:21:37.811Z,80.13
2018-12-19T17:26:48.529Z,74.90
2018-12-19T17:32:04.479Z,72.87
2018-12-19T17:37:13.043Z,74.40
2018-12-19T17:42:19.111Z,81.00
2018-12-19T17:47:25.314Z,74.80
2018-12-19T17:52:32.540Z,76.07
2018-12-19T17:57:43.613Z,87.97
2018-12-19T18:02:50.059Z,81.30
2018-12-19T18:07:56.459Z,78.67
2018-12-19T18:13:06.324Z,74.37
2018-12-19T18:18:31.874Z,66.28
2018-12-19T18:23:44.219Z,75.27
2018-12-19T18:28:52.931Z,81.60
2018-12-19T18:34:00.808Z,72.90
2018-12-19T18:39:10.128Z,72.53
2018-12-19T18:44:19.301Z,102.30
2018-12-19T18:49:25.603Z,111.07
2018-12-19T18:54:31.757Z,89.17
2018-12-19T18:59:38.804Z,119.90
2018-12-19T19:04:45.347Z,97.83
2018-12-19T19:09:53.452Z,79.37
2018-12-19T19:14:59.951Z,82.77
2018-12-19T19:20:07.674Z,113.60
2018-12-19T19:25:14.346Z,81.93
2018-12-19T19:30:22.838Z,75.75
2018-12-19T19:35:31.105Z,83.10
2018-12-19T19:40:41.474Z,86.40
2018-12-19T19:45:49.853Z,78.03
2018-12-19T19:50:58.198Z,99.58
2018-12-19T19:56:05.711Z,218.83
2018-12-19T20:01:12.268Z,72.53
2018-12-19T20:06:19.773Z,237.40
2018-12-19T20:11:28.324Z,83.57
2018-12-19T20:16:39.604Z,88.63
2018-12-19T20:21:47.651Z,101.02
2018-12-19T20:26:54.760Z,169.43
2018-12-19T20:32:01.442Z,84.20
2018-12-19T20:37:09.708Z,128.40
2018-12-19T20:42:17.117Z,138.30
2018-12-19T20:47:25.987Z,83.93
2018-12-19T20:52:34.291Z,86.67
2018-12-19T20:57:44.411Z,93.93
2018-12-19T21:02:53.692Z,109.97
2018-12-19T21:08:00.091Z,93.73
2018-12-19T21:13:08.088Z,96.17
2018-12-19T21:19:21.875Z,91.13
2018-12-19T21:24:29.630Z,83.70
2018-12-19T21:29:37.149Z,98.27
2018-12-19T21:34:44.681Z,90.87
2018-12-19T21:39:53.112Z,168.13
2018-12-19T21:45:00.810Z,128.80
2018-12-19T21:50:08.163Z,111.40
2018-12-19T21:55:14.388Z,124.00
2018-12-19T22:00:42.547Z,96.00
2018-12-19T22:05:50.748Z,75.35
2018-12-19T22:10:56.923Z,91.23
2018-12-19T22:16:14.234Z,111.50
2018-12-19T22:21:27.044Z,79.47
2018-12-19T22:26:34.477Z,80.77
2018-12-19T22:31:47.752Z,154.83
2018-12-19T22:36:56.181Z,124.47
2018-12-19T22:42:03.452Z,127.33
2018-12-19T22:47:30.312Z,115.23
2018-12-19T22:52:49.945Z,86.47
2018-12-19T22:57:55.866Z,81.40
2018-12-19T23:03:06.969Z,81.87
2018-12-19T23:08:14.910Z,126.78
2018-12-19T23:13:22.382Z,88.77
2018-12-19T23:18:33.349Z,80.90
2018-12-19T23:23:45.623Z,75.97
2018-12-19T23:28:57.710Z,93.93
2018-12-19T23:34:18.464Z,124.70
2018-12-19T23:39:26.615Z,91.07
2018-12-19T23:44:46.564Z,93.70
2018-12-19T23:49:52.661Z,93.70
2018-12-19T23:54:58.866Z,84.30
